Time,TemperatureF,DewpointF,PressureIn,WindDirection,WindDirectionDegrees,WindSpeedMPH,WindSpeedGustMPH,Humidity,HourlyPrecipIn,Conditions,Clouds,dailyrainin,SoftwareType,DateUTC
2013-03-07 00:04:00,28.3,25.0,30.34,NNW,335,0.0,3.0,88,0.00,,,0.03,weatherlink.com 1.10,2013-03-07 06:04:00,
2013-03-07 00:19:00,28.1,25.0,30.34,West,266,0.0,4.0,89,0.00,,,0.03,weatherlink.com 1.10,2013-03-07 06:19:00,
2013-03-07 00:35:00,28.2,25.0,30.35,West,261,0.0,4.0,88,0.00,,,0.03,weatherlink.com 1.10,2013-03-07 06:35:00,
2013-03-07 00:50:00,28.2,25.0,30.35,West,264,1.0,2.0,88,0.00,,,0.03,weatherlink.com 1.10,2013-03-07 06:50:00,
2013-03-07 01:05:00,28.1,25.0,30.36,West,266,1.0,3.0,88,0.00,,,0.03,weatherlink.com 1.10,2013-03-07 07:05:00,
2013-03-07 01:20:00,28.1,25.0,30.37,West,278,2.0,3.0,88,0.00,,,0.03,weatherlink.com 1.10,2013-03-07 07:20:00,
2013-03-07 01:35:00,28.2,25.0,30.37,West,268,2.0,4.0,88,0.00,,,0.03,weatherlink.com 1.10,2013-03-07 07:35:00,
2013-03-07 01:50:00,28.2,25.0,30.38,West,263,0.0,2.0,88,0.00,,,0.03,weatherlink.com 1.10,2013-03-07 07:50:00,
2013-03-07 02:05:00,28.2,25.0,30.38,West,266,0.0,3.0,88,0.00,,,0.03,weatherlink.com 1.10,2013-03-07 08:05:00,
2013-03-07 02:20:00,28.1,25.0,30.38,West,263,0.0,3.0,88,0.00,,,0.03,weatherlink.com 1.10,2013-03-07 08:20:00,
2013-03-07 02:35:00,28.0,25.0,30.38,West,264,0.0,3.0,89,0.00,,,0.03,weatherlink.com 1.10,2013-03-07 08:35:00,
2013-03-07 02:50:00,28.0,25.0,30.38,West,269,0.0,3.0,88,0.00,,,0.03,weatherlink.com 1.10,2013-03-07 08:50:00,
2013-03-07 03:20:00,27.9,25.0,30.38,WSW,250,0.0,2.0,88,0.00,,,0.03,weatherlink.com 1.10,2013-03-07 09:20:00,
2013-03-07 03:35:00,27.8,25.0,30.38,WSW,251,0.0,2.0,88,0.00,,,0.03,weatherlink.com 1.10,2013-03-07 09:35:00,
2013-03-07 03:50:00,27.8,25.0,30.38,WSW,251,0.0,0.0,88,0.00,,,0.03,weatherlink.com 1.10,2013-03-07 09:50:00,
2013-03-07 04:05:00,27.6,25.0,30.38,WSW,251,0.0,0.0,88,0.00,,,0.03,weatherlink.com 1.10,2013-03-07 10:05:00,
2013-03-07 04:22:00,27.5,24.0,30.38,WSW,251,0.0,0.0,88,0.00,,,0.03,weatherlink.com 1.10,2013-03-07 10:22:00,
2013-03-07 04:35:00,27.4,25.0,30.38,WSW,251,0.0,1.0,89,0.00,,,0.03,weatherlink.com 1.10,2013-03-07 10:35:00,
2013-03-07 04:50:00,27.2,24.0,30.38,WSW,251,0.0,0.0,89,0.00,,,0.03,weatherlink.com 1.10,2013-03-07 10:50:00,
2013-03-07 05:05:00,27.0,25.0,30.38,WSW,251,0.0,0.0,90,0.00,,,0.03,weatherlink.com 1.10,2013-03-07 11:05:00,
2013-03-07 05:20:00,26.8,24.0,30.39,WSW,251,0.0,0.0,90,0.00,,,0.03,weatherlink.com 1.10,2013-03-07 11:20:00,
2013-03-07 05:35:00,26.8,24.0,30.39,WSW,251,0.0,1.0,90,0.00,,,0.03,weatherlink.com 1.10,2013-03-07 11:35:00,
2013-03-07 05:50:00,26.7,24.0,30.40,WSW,251,0.0,2.0,90,0.00,,,0.03,weatherlink.com 1.10,2013-03-07 11:50:00,
2013-03-07 06:05:00,26.6,24.0,30.40,WSW,251,0.0,1.0,90,0.00,,,0.03,weatherlink.com 1.10,2013-03-07 12:05:00,
2013-03-07 06:20:00,26.6,24.0,30.40,WSW,251,0.0,0.0,89,0.00,,,0.03,weatherlink.com 1.10,2013-03-07 12:20:00,
2013-03-07 06:35:00,26.6,24.0,30.40,WSW,251,0.0,2.0,89,0.00,,,0.03,weatherlink.com 1.10,2013-03-07 12:35:00,
2013-03-07 06:50:00,26.5,24.0,30.41,SSE,161,0.0,2.0,90,0.00,,,0.03,weatherlink.com 1.10,2013-03-07 12:50:00,
2013-03-07 07:05:00,26.7,24.0,30.41,SSE,161,0.0,0.0,90,0.00,,,0.03,weatherlink.com 1.10,2013-03-07 13:05:00,
2013-03-07 07:20:00,27.2,25.0,30.42,SSE,161,0.0,0.0,90,0.00,,,0.03,weatherlink.com 1.10,2013-03-07 13:20:00,
2013-03-07 07:35:00,28.0,25.0,30.42,SSE,161,0.0,1.0,88,0.00,,,0.03,weatherlink.com 1.10,2013-03-07 13:35:00,
2013-03-07 07:50:00,28.6,25.0,30.43,SW,215,0.0,1.0,85,0.00,,,0.03,weatherlink.com 1.10,2013-03-07 13:50:00,
2013-03-07 08:05:00,29.0,25.0,30.43,NW,311,1.0,3.0,84,0.00,,,0.03,weatherlink.com 1.10,2013-03-07 14:05:00,
2013-03-07 08:20:00,29.4,25.0,30.43,West,271,1.0,3.0,83,0.00,,,0.03,weatherlink.com 1.10,2013-03-07 14:20:00,
2013-03-07 08:35:00,29.6,25.0,30.44,NNW,328,3.0,3.0,83,0.00,,,0.03,weatherlink.com 1.10,2013-03-07 14:35:00,
2013-03-07 08:50:00,29.9,25.0,30.44,WNW,286,1.0,4.0,82,0.00,,,0.03,weatherlink.com 1.10,2013-03-07 14:50:00,
2013-03-07 09:06:00,30.3,25.0,30.44,WNW,290,3.0,4.0,81,0.00,,,0.03,weatherlink.com 1.10,2013-03-07 15:06:00,
2013-03-07 09:21:00,30.3,25.0,30.44,West,275,1.0,4.0,81,0.00,,,0.03,weatherlink.com 1.10,2013-03-07 15:21:00,
2013-03-07 09:36:00,30.9,25.0,30.45,WNW,288,0.0,5.0,80,0.00,,,0.03,weatherlink.com 1.10,2013-03-07 15:36:00,
2013-03-07 09:51:00,31.2,25.0,30.45,NW,314,1.0,4.0,79,0.01,,,0.04,weatherlink.com 1.10,2013-03-07 15:51:00,
2013-03-07 10:06:00,31.8,26.0,30.45,North,10,2.0,4.0,79,0.01,,,0.04,weatherlink.com 1.10,2013-03-07 16:06:00,
2013-03-07 10:21:00,32.8,26.0,30.44,North,5,0.0,4.0,77,0.01,,,0.04,weatherlink.com 1.10,2013-03-07 16:21:00,
2013-03-07 10:36:00,33.4,26.0,30.44,NW,317,2.0,3.0,75,0.01,,,0.04,weatherlink.com 1.10,2013-03-07 16:36:00,
2013-03-07 10:51:00,33.2,26.0,30.44,NW,325,0.0,4.0,75,0.00,,,0.04,weatherlink.com 1.10,2013-03-07 16:51:00,
2013-03-07 11:06:00,33.7,26.0,30.44,NNW,333,2.0,4.0,72,0.00,,,0.04,weatherlink.com 1.10,2013-03-07 17:06:00,
2013-03-07 11:21:00,33.7,25.0,30.44,WSW,250,1.0,4.0,71,0.00,,,0.04,weatherlink.com 1.10,2013-03-07 17:21:00,
2013-03-07 11:36:00,34.6,26.0,30.45,West,269,3.0,4.0,71,0.00,,,0.04,weatherlink.com 1.10,2013-03-07 17:36:00,
2013-03-07 11:51:00,34.1,25.0,30.44,SE,143,2.0,7.0,68,0.01,,,0.05,weatherlink.com 1.10,2013-03-07 17:51:00,
2013-03-07 12:06:00,33.8,25.0,30.44,SW,225,1.0,6.0,70,0.03,,,0.07,weatherlink.com 1.10,2013-03-07 18:06:00,
2013-03-07 12:21:00,34.8,25.0,30.44,SSE,163,3.0,6.0,67,0.04,,,0.08,weatherlink.com 1.10,2013-03-07 18:21:00,
2013-03-07 12:36:00,35.4,25.0,30.44,SSW,203,1.0,6.0,66,0.06,,,0.10,weatherlink.com 1.10,2013-03-07 18:36:00,
2013-03-07 12:51:00,35.6,25.0,30.43,WSW,250,3.0,7.0,65,0.09,,,0.14,weatherlink.com 1.10,2013-03-07 18:51:00,
2013-03-07 13:06:00,34.7,24.0,30.43,SW,215,0.0,7.0,66,0.10,,,0.17,weatherlink.com 1.10,2013-03-07 19:06:00,
2013-03-07 13:21:00,34.5,26.0,30.42,SW,221,4.0,8.0,70,0.11,,,0.19,weatherlink.com 1.10,2013-03-07 19:21:00,
2013-03-07 13:36:00,34.6,25.0,30.43,South,177,0.0,6.0,68,0.10,,,0.21,weatherlink.com 1.10,2013-03-07 19:36:00,
2013-03-07 13:51:00,34.7,25.0,30.42,WSW,255,2.0,5.0,68,0.09,,,0.23,weatherlink.com 1.10,2013-03-07 19:51:00,
2013-03-07 14:06:00,34.1,25.0,30.42,WSW,245,4.0,6.0,69,0.07,,,0.24,weatherlink.com 1.10,2013-03-07 20:06:00,
2013-03-07 14:21:00,33.6,25.0,30.42,WSW,243,2.0,5.0,70,0.06,,,0.25,weatherlink.com 1.10,2013-03-07 20:21:00,
2013-03-07 14:36:00,33.7,25.0,30.42,South,173,6.0,6.0,70,0.05,,,0.26,weatherlink.com 1.10,2013-03-07 20:36:00,
2013-03-07 14:51:00,33.7,25.0,30.43,SW,217,3.0,5.0,69,0.03,,,0.26,weatherlink.com 1.10,2013-03-07 20:51:00,
2013-03-07 15:06:00,34.0,26.0,30.43,SSW,196,2.0,4.0,71,0.03,,,0.27,weatherlink.com 1.10,2013-03-07 21:06:00,
2013-03-07 15:21:00,33.4,25.0,30.43,South,175,2.0,5.0,71,0.03,,,0.01,weatherlink.com 1.10,2013-03-07 21:21:00,
2013-03-07 15:36:00,33.4,25.0,30.43,South,182,3.0,5.0,72,0.02,,,0.01,weatherlink.com 1.10,2013-03-07 21:36:00,
2013-03-07 15:51:00,33.4,25.0,30.43,SW,219,1.0,4.0,72,0.03,,,0.02,weatherlink.com 1.10,2013-03-07 21:51:00,
2013-03-07 16:21:00,32.6,24.0,30.42,WSW,246,1.0,4.0,72,0.01,,,0.02,weatherlink.com 1.10,2013-03-07 22:21:00,
2013-03-07 16:36:00,32.6,24.0,30.42,SSW,209,3.0,4.0,72,0.02,,,0.03,weatherlink.com 1.10,2013-03-07 22:36:00,
2013-03-07 16:51:00,32.7,25.0,30.42,SW,216,0.0,4.0,72,0.01,,,0.03,weatherlink.com 1.10,2013-03-07 22:51:00,
2013-03-07 17:06:00,32.1,24.0,30.42,SSW,196,2.0,4.0,73,0.01,,,0.03,weatherlink.com 1.10,2013-03-07 23:06:00,
2013-03-07 17:21:00,31.4,24.0,30.42,SSW,196,1.0,2.0,75,0.01,,,0.03,weatherlink.com 1.10,2013-03-07 23:21:00,
2013-03-07 17:36:00,30.8,24.0,30.43,SSW,196,0.0,1.0,77,0.00,,,0.03,weatherlink.com 1.10,2013-03-07 23:36:00,
2013-03-07 17:51:00,30.1,24.0,30.43,South,187,0.0,1.0,78,0.00,,,0.03,weatherlink.com 1.10,2013-03-07 23:51:00,
2013-03-07 18:07:00,29.4,24.0,30.44,South,187,0.0,1.0,80,0.00,,,0.03,weatherlink.com 1.10,2013-03-08 00:07:00,
2013-03-07 18:22:00,28.8,24.0,30.44,South,187,0.0,0.0,82,0.00,,,0.03,weatherlink.com 1.10,2013-03-08 00:22:00,
2013-03-07 18:37:00,28.2,23.0,30.44,South,187,0.0,0.0,82,0.00,,,0.03,weatherlink.com 1.10,2013-03-08 00:37:00,
2013-03-07 19:07:00,26.8,22.0,30.45,South,187,0.0,0.0,83,0.00,,,0.03,weatherlink.com 1.10,2013-03-08 01:07:00,
2013-03-07 19:22:00,25.9,22.0,30.45,South,187,0.0,0.0,84,0.00,,,0.03,weatherlink.com 1.10,2013-03-08 01:22:00,
2013-03-07 19:37:00,24.5,20.0,30.45,South,187,0.0,0.0,84,0.00,,,0.03,weatherlink.com 1.10,2013-03-08 01:37:00,
2013-03-07 19:52:00,23.2,20.0,30.44,South,187,0.0,0.0,86,0.00,,,0.03,weatherlink.com 1.10,2013-03-08 01:52:00,
2013-03-07 20:07:00,21.9,19.0,30.44,South,187,0.0,0.0,87,0.00,,,0.03,weatherlink.com 1.10,2013-03-08 02:07:00,
2013-03-07 20:22:00,20.9,18.0,30.44,South,187,0.0,0.0,89,0.00,,,0.03,weatherlink.com 1.10,2013-03-08 02:22:00,
2013-03-07 20:37:00,20.3,18.0,30.45,South,187,0.0,0.0,89,0.00,,,0.03,weatherlink.com 1.10,2013-03-08 02:37:00,
2013-03-07 20:52:00,19.7,17.0,30.45,South,187,0.0,0.0,90,0.00,,,0.03,weatherlink.com 1.10,2013-03-08 02:52:00,
2013-03-07 21:07:00,18.9,17.0,30.46,South,187,1.0,2.0,90,0.00,,,0.03,weatherlink.com 1.10,2013-03-08 03:07:00,
2013-03-07 21:22:00,18.0,16.0,30.46,SSE,165,1.0,2.0,90,0.00,,,0.03,weatherlink.com 1.10,2013-03-08 03:22:00,
2013-03-07 21:37:00,17.2,15.0,30.46,SSE,165,1.0,2.0,92,0.00,,,0.03,weatherlink.com 1.10,2013-03-08 03:37:00,
2013-03-07 21:53:00,16.9,15.0,30.46,SSE,153,1.0,2.0,92,0.00,,,0.03,weatherlink.com 1.10,2013-03-08 03:53:00,
2013-03-07 22:08:00,16.8,15.0,30.46,SSE,153,0.0,0.0,92,0.00,,,0.03,weatherlink.com 1.10,2013-03-08 04:08:00,
2013-03-07 22:23:00,16.4,15.0,30.45,SSE,153,0.0,2.0,92,0.00,,,0.03,weatherlink.com 1.10,2013-03-08 04:23:00,
2013-03-07 22:38:00,15.6,14.0,30.45,SSE,153,1.0,1.0,91,0.00,,,0.03,weatherlink.com 1.10,2013-03-08 04:38:00,
2013-03-07 22:53:00,15.9,14.0,30.45,SSE,153,0.0,0.0,93,0.00,,,0.03,weatherlink.com 1.10,2013-03-08 04:53:00,
2013-03-07 23:08:00,16.7,15.0,30.46,SSE,153,0.0,1.0,94,0.00,,,0.03,weatherlink.com 1.10,2013-03-08 05:08:00,
2013-03-07 23:23:00,16.3,14.0,30.46,SSE,153,0.0,1.0,91,0.00,,,0.03,weatherlink.com 1.10,2013-03-08 05:23:00,
2013-03-07 23:38:00,15.4,13.0,30.46,SSE,153,0.0,0.0,90,0.00,,,0.03,weatherlink.com 1.10,2013-03-08 05:38:00,
2013-03-07 23:53:00,14.8,13.0,30.46,SSE,153,0.0,0.0,91,0.00,,,0.03,weatherlink.com 1.10,2013-03-08 05:53:00,